sensor_id;sensor_type;location;lat;lon;timestamp;P1;durP1;ratioP1;P2;durP2;ratioP2
64342;SDS011;50675;53.530;-6.312;2022-08-01T00:02:07;5.20;;;2.90;;
64342;SDS011;50675;53.530;-6.312;2022-08-01T00:04:33;5.47;;;2.53;;
64342;SDS011;50675;53.530;-6.312;2022-08-01T00:06:59;7.97;;;3.22;;
64342;SDS011;50675;53.530;-6.312;2022-08-01T00:09:25;4.28;;;2.85;;
64342;SDS011;50675;53.530;-6.312;2022-08-01T00:11:51;7.88;;;2.72;;
64342;SDS011;50675;53.530;-6.312;2022-08-01T00:14:17;8.25;;;3.35;;
64342;SDS011;50675;53.530;-6.312;2022-08-01T00:16:42;4.45;;;2.75;;
64342;SDS011;50675;53.530;-6.312;2022-08-01T00:19:08;7.32;;;3.78;;
64342;SDS011;50675;53.530;-6.312;2022-08-01T00:21:34;6.97;;;3.03;;
64342;SDS011;50675;53.530;-6.312;2022-08-01T00:23:59;8.23;;;3.05;;
64342;SDS011;50675;53.530;-6.312;2022-08-01T00:26:25;9.73;;;3.47;;
64342;SDS011;50675;53.530;-6.312;2022-08-01T00:28:51;5.25;;;3.40;;
64342;SDS011;50675;53.530;-6.312;2022-08-01T00:31:17;8.85;;;3.17;;
64342;SDS011;50675;53.530;-6.312;2022-08-01T00:33:42;7.55;;;3.20;;
64342;SDS011;50675;53.530;-6.312;2022-08-01T00:36:08;6.90;;;2.92;;
64342;SDS011;50675;53.530;-6.312;2022-08-01T00:38:34;6.88;;;3.40;;
64342;SDS011;50675;53.530;-6.312;2022-08-01T00:40:59;4.20;;;2.90;;
64342;SDS011;50675;53.530;-6.312;2022-08-01T00:43:25;5.20;;;2.80;;
64342;SDS011;50675;53.530;-6.312;2022-08-01T00:45:51;5.78;;;2.90;;
64342;SDS011;50675;53.530;-6.312;2022-08-01T00:48:16;5.97;;;3.03;;
64342;SDS011;50675;53.530;-6.312;2022-08-01T00:50:42;4.88;;;2.78;;
64342;SDS011;50675;53.530;-6.312;2022-08-01T00:53:08;7.63;;;3.30;;
64342;SDS011;50675;53.530;-6.312;2022-08-01T00:55:33;6.22;;;3.63;;
64342;SDS011;50675;53.530;-6.312;2022-08-01T00:57:59;8.73;;;3.92;;
64342;SDS011;50675;53.530;-6.312;2022-08-01T01:00:25;6.10;;;3.30;;
64342;SDS011;50675;53.530;-6.312;2022-08-01T01:02:51;6.32;;;3.63;;
64342;SDS011;50675;53.530;-6.312;2022-08-01T01:05:17;5.57;;;3.60;;
64342;SDS011;50675;53.530;-6.312;2022-08-01T01:07:46;9.00;;;3.75;;
64342;SDS011;50675;53.530;-6.312;2022-08-01T01:10:25;8.27;;;3.83;;
64342;SDS011;50675;53.530;-6.312;2022-08-01T01:16:31;5.25;;;3.58;;
64342;SDS011;50675;53.530;-6.312;2022-08-01T01:18:55;6.30;;;3.67;;
64342;SDS011;50675;53.530;-6.312;2022-08-01T01:24:03;7.32;;;4.32;;
64342;SDS011;50675;53.530;-6.312;2022-08-01T01:29:40;7.53;;;4.22;;
64342;SDS011;50675;53.530;-6.312;2022-08-01T01:32:19;5.75;;;4.05;;
64342;SDS011;50675;53.530;-6.312;2022-08-01T01:37:20;7.95;;;4.55;;
64342;SDS011;50675;53.530;-6.312;2022-08-01T01:39:49;8.23;;;4.25;;
64342;SDS011;50675;53.530;-6.312;2022-08-01T01:42:18;6.25;;;4.40;;
64342;SDS011;50675;53.530;-6.312;2022-08-01T01:44:45;7.95;;;4.63;;
64342;SDS011;50675;53.530;-6.312;2022-08-01T01:47:13;7.22;;;4.63;;
64342;SDS011;50675;53.530;-6.312;2022-08-01T01:49:41;9.98;;;4.45;;
64342;SDS011;50675;53.530;-6.312;2022-08-01T01:52:09;7.40;;;4.20;;
64342;SDS011;50675;53.530;-6.312;2022-08-01T01:54:39;6.78;;;4.40;;
64342;SDS011;50675;53.530;-6.312;2022-08-01T01:57:09;7.20;;;5.00;;
64342;SDS011;50675;53.530;-6.312;2022-08-01T01:59:37;6.95;;;4.57;;
64342;SDS011;50675;53.530;-6.312;2022-08-01T02:02:05;8.13;;;4.32;;
64342;SDS011;50675;53.530;-6.312;2022-08-01T02:04:32;7.88;;;4.57;;
64342;SDS011;50675;53.530;-6.312;2022-08-01T02:07:01;6.78;;;4.10;;
64342;SDS011;50675;53.530;-6.312;2022-08-01T02:09:27;10.52;;;4.55;;
64342;SDS011;50675;53.530;-6.312;2022-08-01T02:11:54;7.97;;;4.15;;
64342;SDS011;50675;53.530;-6.312;2022-08-01T02:14:22;7.18;;;4.63;;
64342;SDS011;50675;53.530;-6.312;2022-08-01T02:16:49;6.95;;;4.13;;
64342;SDS011;50675;53.530;-6.312;2022-08-01T02:19:19;8.80;;;5.10;;
64342;SDS011;50675;53.530;-6.312;2022-08-01T02:26:52;8.77;;;5.50;;
64342;SDS011;50675;53.530;-6.312;2022-08-01T02:29:22;12.82;;;5.20;;
64342;SDS011;50675;53.530;-6.312;2022-08-01T02:31:51;8.30;;;5.20;;
64342;SDS011;50675;53.530;-6.312;2022-08-01T02:34:20;8.82;;;5.55;;
64342;SDS011;50675;53.530;-6.312;2022-08-01T02:36:47;9.45;;;5.30;;
64342;SDS011;50675;53.530;-6.312;2022-08-01T02:39:16;7.90;;;5.30;;
64342;SDS011;50675;53.530;-6.312;2022-08-01T02:41:46;10.80;;;5.40;;
64342;SDS011;50675;53.530;-6.312;2022-08-01T02:44:21;8.50;;;5.07;;
64342;SDS011;50675;53.530;-6.312;2022-08-01T02:46:54;9.23;;;4.88;;
64342;SDS011;50675;53.530;-6.312;2022-08-01T02:49:23;8.15;;;4.82;;
64342;SDS011;50675;53.530;-6.312;2022-08-01T02:51:51;8.52;;;4.70;;
64342;SDS011;50675;53.530;-6.312;2022-08-01T02:54:20;9.45;;;4.97;;
64342;SDS011;50675;53.530;-6.312;2022-08-01T02:56:48;9.73;;;4.70;;
64342;SDS011;50675;53.530;-6.312;2022-08-01T02:59:18;7.93;;;4.60;;
64342;SDS011;50675;53.530;-6.312;2022-08-01T03:01:45;10.63;;;4.95;;
64342;SDS011;50675;53.530;-6.312;2022-08-01T03:04:12;7.78;;;4.28;;
64342;SDS011;50675;53.530;-6.312;2022-08-01T03:06:43;6.78;;;4.57;;
64342;SDS011;50675;53.530;-6.312;2022-08-01T03:09:10;8.73;;;4.70;;
64342;SDS011;50675;53.530;-6.312;2022-08-01T03:11:37;7.95;;;4.00;;
64342;SDS011;50675;53.530;-6.312;2022-08-01T03:14:07;7.35;;;4.07;;
64342;SDS011;50675;53.530;-6.312;2022-08-01T03:16:35;6.45;;;3.67;;
64342;SDS011;50675;53.530;-6.312;2022-08-01T03:19:03;6.70;;;3.60;;
64342;SDS011;50675;53.530;-6.312;2022-08-01T03:21:30;5.63;;;3.65;;
64342;SDS011;50675;53.530;-6.312;2022-08-01T03:23:57;6.47;;;3.50;;
64342;SDS011;50675;53.530;-6.312;2022-08-01T03:26:26;5.95;;;3.60;;
64342;SDS011;50675;53.530;-6.312;2022-08-01T03:28:55;7.32;;;3.80;;
64342;SDS011;50675;53.530;-6.312;2022-08-01T03:31:25;5.75;;;3.65;;
64342;SDS011;50675;53.530;-6.312;2022-08-01T03:33:51;6.07;;;3.17;;
64342;SDS011;50675;53.530;-6.312;2022-08-01T03:36:17;6.32;;;3.63;;
64342;SDS011;50675;53.530;-6.312;2022-08-01T03:38:49;8.07;;;3.78;;
64342;SDS011;50675;53.530;-6.312;2022-08-01T03:41:18;6.93;;;3.17;;
64342;SDS011;50675;53.530;-6.312;2022-08-01T03:44:00;5.75;;;3.85;;
64342;SDS011;50675;53.530;-6.312;2022-08-01T03:46:39;7.32;;;3.30;;
64342;SDS011;50675;53.530;-6.312;2022-08-01T03:49:14;5.43;;;3.33;;
64342;SDS011;50675;53.530;-6.312;2022-08-01T03:51:54;7.65;;;3.22;;
64342;SDS011;50675;53.530;-6.312;2022-08-01T03:54:21;8.15;;;3.88;;
64342;SDS011;50675;53.530;-6.312;2022-08-01T03:56:50;7.13;;;3.33;;
64342;SDS011;50675;53.530;-6.312;2022-08-01T03:59:17;7.45;;;3.33;;
64342;SDS011;50675;53.530;-6.312;2022-08-01T04:01:44;6.15;;;3.30;;
64342;SDS011;50675;53.530;-6.312;2022-08-01T04:04:11;4.78;;;3.42;;
64342;SDS011;50675;53.530;-6.312;2022-08-01T04:06:38;4.93;;;3.10;;
64342;SDS011;50675;53.530;-6.312;2022-08-01T04:09:04;5.03;;;3.00;;
64342;SDS011;50675;53.530;-6.312;2022-08-01T04:11:32;4.45;;;3.05;;
64342;SDS011;50675;53.530;-6.312;2022-08-01T04:13:58;6.70;;;3.20;;
64342;SDS011;50675;53.530;-6.312;2022-08-01T04:16:23;5.30;;;2.88;;
64342;SDS011;50675;53.530;-6.312;2022-08-01T04:18:50;7.55;;;3.30;;
64342;SDS011;50675;53.530;-6.312;2022-08-01T04:21:17;5.22;;;3.10;;
64342;SDS011;50675;53.530;-6.312;2022-08-01T04:23:45;4.95;;;3.10;;
64342;SDS011;50675;53.530;-6.312;2022-08-01T04:26:12;6.63;;;3.40;;
64342;SDS011;50675;53.530;-6.312;2022-08-01T04:28:39;6.28;;;3.10;;
64342;SDS011;50675;53.530;-6.312;2022-08-01T04:31:08;8.38;;;3.50;;
64342;SDS011;50675;53.530;-6.312;2022-08-01T04:33:38;6.43;;;3.00;;
64342;SDS011;50675;53.530;-6.312;2022-08-01T04:36:05;8.90;;;3.10;;
64342;SDS011;50675;53.530;-6.312;2022-08-01T04:38:32;5.57;;;3.00;;
64342;SDS011;50675;53.530;-6.312;2022-08-01T04:41:02;5.90;;;3.00;;
64342;SDS011;50675;53.530;-6.312;2022-08-01T04:43:28;7.25;;;2.90;;
64342;SDS011;50675;53.530;-6.312;2022-08-01T04:45:54;5.35;;;2.83;;
64342;SDS011;50675;53.530;-6.312;2022-08-01T04:48:20;4.07;;;2.72;;
64342;SDS011;50675;53.530;-6.312;2022-08-01T04:50:49;4.82;;;2.70;;
64342;SDS011;50675;53.530;-6.312;2022-08-01T04:53:16;6.65;;;2.55;;
64342;SDS011;50675;53.530;-6.312;2022-08-01T04:55:44;7.53;;;3.00;;
64342;SDS011;50675;53.530;-6.312;2022-08-01T04:58:11;7.35;;;2.88;;
64342;SDS011;50675;53.530;-6.312;2022-08-01T05:00:37;4.97;;;2.80;;
64342;SDS011;50675;53.530;-6.312;2022-08-01T05:03:03;4.10;;;2.50;;
64342;SDS011;50675;53.530;-6.312;2022-08-01T05:05:29;4.88;;;2.50;;
64342;SDS011;50675;53.530;-6.312;2022-08-01T05:07:55;5.47;;;2.63;;
64342;SDS011;50675;53.530;-6.312;2022-08-01T05:10:21;6.43;;;3.00;;
64342;SDS011;50675;53.530;-6.312;2022-08-01T05:12:47;6.03;;;2.50;;
64342;SDS011;50675;53.530;-6.312;2022-08-01T05:15:12;8.25;;;2.80;;
64342;SDS011;50675;53.530;-6.312;2022-08-01T05:17:38;7.63;;;2.80;;
64342;SDS011;50675;53.530;-6.312;2022-08-01T05:20:04;12.80;;;2.63;;
64342;SDS011;50675;53.530;-6.312;2022-08-01T05:22:31;4.75;;;2.85;;
64342;SDS011;50675;53.530;-6.312;2022-08-01T05:24:57;5.75;;;2.85;;
64342;SDS011;50675;53.530;-6.312;2022-08-01T05:27:25;3.90;;;2.63;;
64342;SDS011;50675;53.530;-6.312;2022-08-01T05:29:51;7.93;;;2.70;;
64342;SDS011;50675;53.530;-6.312;2022-08-01T05:32:16;6.03;;;2.92;;
64342;SDS011;50675;53.530;-6.312;2022-08-01T05:34:42;6.00;;;2.92;;
64342;SDS011;50675;53.530;-6.312;2022-08-01T05:37:09;7.68;;;3.35;;
64342;SDS011;50675;53.530;-6.312;2022-08-01T05:39:35;7.05;;;4.18;;
64342;SDS011;50675;53.530;-6.312;2022-08-01T05:42:01;7.78;;;3.20;;
64342;SDS011;50675;53.530;-6.312;2022-08-01T05:44:27;10.45;;;3.17;;
64342;SDS011;50675;53.530;-6.312;2022-08-01T05:46:53;12.73;;;3.10;;
64342;SDS011;50675;53.530;-6.312;2022-08-01T05:49:19;7.13;;;2.83;;
64342;SDS011;50675;53.530;-6.312;2022-08-01T05:51:45;7.22;;;4.10;;
64342;SDS011;50675;53.530;-6.312;2022-08-01T05:54:11;5.72;;;3.15;;
64342;SDS011;50675;53.530;-6.312;2022-08-01T05:56:36;9.55;;;3.58;;
64342;SDS011;50675;53.530;-6.312;2022-08-01T05:59:02;9.13;;;3.55;;
64342;SDS011;50675;53.530;-6.312;2022-08-01T06:01:28;7.38;;;3.80;;
64342;SDS011;50675;53.530;-6.312;2022-08-01T06:03:54;8.32;;;3.22;;
64342;SDS011;50675;53.530;-6.312;2022-08-01T06:06:20;8.68;;;3.53;;
64342;SDS011;50675;53.530;-6.312;2022-08-01T06:08:46;5.45;;;3.17;;
64342;SDS011;50675;53.530;-6.312;2022-08-01T06:11:12;8.90;;;3.78;;
64342;SDS011;50675;53.530;-6.312;2022-08-01T06:13:38;8.27;;;3.50;;
64342;SDS011;50675;53.530;-6.312;2022-08-01T06:16:04;6.50;;;3.38;;
64342;SDS011;50675;53.530;-6.312;2022-08-01T06:18:30;8.02;;;4.15;;
64342;SDS011;50675;53.530;-6.312;2022-08-01T06:20:56;5.45;;;3.55;;
64342;SDS011;50675;53.530;-6.312;2022-08-01T06:23:22;6.93;;;3.78;;
64342;SDS011;50675;53.530;-6.312;2022-08-01T06:25:47;7.70;;;3.83;;
64342;SDS011;50675;53.530;-6.312;2022-08-01T06:28:14;7.65;;;3.95;;
64342;SDS011;50675;53.530;-6.312;2022-08-01T06:30:39;5.75;;;2.92;;
64342;SDS011;50675;53.530;-6.312;2022-08-01T06:33:05;5.55;;;2.92;;
64342;SDS011;50675;53.530;-6.312;2022-08-01T06:35:30;5.60;;;2.92;;
64342;SDS011;50675;53.530;-6.312;2022-08-01T06:37:56;5.57;;;3.00;;
64342;SDS011;50675;53.530;-6.312;2022-08-01T06:40:23;7.63;;;3.00;;
64342;SDS011;50675;53.530;-6.312;2022-08-01T06:42:49;6.28;;;2.90;;
64342;SDS011;50675;53.530;-6.312;2022-08-01T06:45:16;4.97;;;3.13;;
64342;SDS011;50675;53.530;-6.312;2022-08-01T06:47:42;5.80;;;2.95;;
64342;SDS011;50675;53.530;-6.312;2022-08-01T06:50:10;7.40;;;3.30;;
64342;SDS011;50675;53.530;-6.312;2022-08-01T06:52:37;5.72;;;3.40;;
64342;SDS011;50675;53.530;-6.312;2022-08-01T06:55:03;5.95;;;3.10;;
64342;SDS011;50675;53.530;-6.312;2022-08-01T06:57:29;4.55;;;3.22;;
64342;SDS011;50675;53.530;-6.312;2022-08-01T06:59:55;6.18;;;3.25;;
64342;SDS011;50675;53.530;-6.312;2022-08-01T07:02:21;5.93;;;3.40;;
64342;SDS011;50675;53.530;-6.312;2022-08-01T07:04:47;6.05;;;3.47;;
64342;SDS011;50675;53.530;-6.312;2022-08-01T07:07:13;5.75;;;3.65;;
64342;SDS011;50675;53.530;-6.312;2022-08-01T07:09:38;5.43;;;3.40;;
64342;SDS011;50675;53.530;-6.312;2022-08-01T07:12:06;5.97;;;3.40;;
64342;SDS011;50675;53.530;-6.312;2022-08-01T07:14:32;5.15;;;3.22;;
64342;SDS011;50675;53.530;-6.312;2022-08-01T07:16:58;4.88;;;3.22;;
64342;SDS011;50675;53.530;-6.312;2022-08-01T07:19:23;4.63;;;3.50;;
64342;SDS011;50675;53.530;-6.312;2022-08-01T07:21:49;4.57;;;3.42;;
64342;SDS011;50675;53.530;-6.312;2022-08-01T07:24:15;5.68;;;3.53;;
64342;SDS011;50675;53.530;-6.312;2022-08-01T07:26:41;4.82;;;3.47;;
64342;SDS011;50675;53.530;-6.312;2022-08-01T07:29:08;5.57;;;3.67;;
64342;SDS011;50675;53.530;-6.312;2022-08-01T07:31:34;6.15;;;3.67;;
64342;SDS011;50675;53.530;-6.312;2022-08-01T07:34:00;6.18;;;3.47;;
64342;SDS011;50675;53.530;-6.312;2022-08-01T07:36:25;7.57;;;3.63;;
64342;SDS011;50675;53.530;-6.312;2022-08-01T07:38:51;5.45;;;3.80;;
64342;SDS011;50675;53.530;-6.312;2022-08-01T07:41:17;5.60;;;3.90;;
64342;SDS011;50675;53.530;-6.312;2022-08-01T07:43:42;5.18;;;3.60;;
64342;SDS011;50675;53.530;-6.312;2022-08-01T07:46:08;4.47;;;3.50;;
64342;SDS011;50675;53.530;-6.312;2022-08-01T07:48:34;6.38;;;3.65;;
64342;SDS011;50675;53.530;-6.312;2022-08-01T07:50:59;5.75;;;4.10;;
64342;SDS011;50675;53.530;-6.312;2022-08-01T07:53:26;6.40;;;4.20;;
64342;SDS011;50675;53.530;-6.312;2022-08-01T07:55:51;5.22;;;3.60;;
64342;SDS011;50675;53.530;-6.312;2022-08-01T07:58:17;6.90;;;3.63;;
64342;SDS011;50675;53.530;-6.312;2022-08-01T08:00:43;5.10;;;3.38;;
64342;SDS011;50675;53.530;-6.312;2022-08-01T08:03:09;5.30;;;3.72;;
64342;SDS011;50675;53.530;-6.312;2022-08-01T08:05:35;6.47;;;3.78;;
64342;SDS011;50675;53.530;-6.312;2022-08-01T08:08:04;5.57;;;3.67;;
64342;SDS011;50675;53.530;-6.312;2022-08-01T08:10:31;5.88;;;3.60;;
64342;SDS011;50675;53.530;-6.312;2022-08-01T08:12:57;4.68;;;3.20;;
64342;SDS011;50675;53.530;-6.312;2022-08-01T08:15:23;4.15;;;2.95;;
64342;SDS011;50675;53.530;-6.312;2022-08-01T08:17:49;4.30;;;2.95;;
64342;SDS011;50675;53.530;-6.312;2022-08-01T08:20:14;6.18;;;3.63;;
64342;SDS011;50675;53.530;-6.312;2022-08-01T08:22:40;4.32;;;3.25;;
64342;SDS011;50675;53.530;-6.312;2022-08-01T08:25:06;4.13;;;2.88;;
64342;SDS011;50675;53.530;-6.312;2022-08-01T08:27:33;5.25;;;3.15;;
64342;SDS011;50675;53.530;-6.312;2022-08-01T08:29:59;4.03;;;2.90;;
64342;SDS011;50675;53.530;-6.312;2022-08-01T08:32:24;5.25;;;2.90;;
64342;SDS011;50675;53.530;-6.312;2022-08-01T08:34:50;4.30;;;2.97;;
64342;SDS011;50675;53.530;-6.312;2022-08-01T08:37:15;4.20;;;2.80;;
64342;SDS011;50675;53.530;-6.312;2022-08-01T08:39:42;5.10;;;3.17;;
64342;SDS011;50675;53.530;-6.312;2022-08-01T08:42:08;4.93;;;2.90;;
64342;SDS011;50675;53.530;-6.312;2022-08-01T08:44:36;4.05;;;2.75;;
64342;SDS011;50675;53.530;-6.312;2022-08-01T10:41:44;4.10;;;1.92;;
64342;SDS011;50675;53.530;-6.312;2022-08-01T10:44:11;2.83;;;1.90;;
64342;SDS011;50675;53.530;-6.312;2022-08-01T10:46:37;3.30;;;2.13;;
64342;SDS011;50675;53.530;-6.312;2022-08-01T10:49:08;3.22;;;2.30;;
64342;SDS011;50675;53.530;-6.312;2022-08-01T10:51:37;3.75;;;2.22;;
64342;SDS011;50675;53.530;-6.312;2022-08-01T10:54:05;4.75;;;2.13;;
64342;SDS011;50675;53.530;-6.312;2022-08-01T10:56:42;5.13;;;2.40;;
64342;SDS011;50675;53.530;-6.312;2022-08-01T10:59:09;5.35;;;1.80;;
64342;SDS011;50675;53.530;-6.312;2022-08-01T11:01:35;3.53;;;1.60;;
64342;SDS011;50675;53.530;-6.312;2022-08-01T11:04:02;1.50;;;1.40;;
64342;SDS011;50675;53.530;-6.312;2022-08-01T11:06:40;1.45;;;1.35;;
64342;SDS011;50675;53.530;-6.312;2022-08-01T11:14:27;2.67;;;1.40;;
64342;SDS011;50675;53.530;-6.312;2022-08-01T11:16:54;1.85;;;1.58;;
64342;SDS011;50675;53.530;-6.312;2022-08-01T11:19:20;4.90;;;1.63;;
64342;SDS011;50675;53.530;-6.312;2022-08-01T11:27:23;1.88;;;1.20;;
64342;SDS011;50675;53.530;-6.312;2022-08-01T11:32:34;1.33;;;1.10;;
64342;SDS011;50675;53.530;-6.312;2022-08-01T11:35:10;3.25;;;1.50;;
64342;SDS011;50675;53.530;-6.312;2022-08-01T11:37:36;4.50;;;1.60;;
64342;SDS011;50675;53.530;-6.312;2022-08-01T11:42:41;2.08;;;1.45;;
64342;SDS011;50675;53.530;-6.312;2022-08-01T11:45:06;2.45;;;1.38;;
64342;SDS011;50675;53.530;-6.312;2022-08-01T11:47:50;2.83;;;1.77;;
64342;SDS011;50675;53.530;-6.312;2022-08-01T11:52:58;1.95;;;1.58;;
64342;SDS011;50675;53.530;-6.312;2022-08-01T11:55:29;1.67;;;1.50;;
64342;SDS011;50675;53.530;-6.312;2022-08-01T11:58:02;1.88;;;1.40;;
64342;SDS011;50675;53.530;-6.312;2022-08-01T12:00:32;2.17;;;1.50;;
64342;SDS011;50675;53.530;-6.312;2022-08-01T12:03:00;2.10;;;1.50;;
64342;SDS011;50675;53.530;-6.312;2022-08-01T12:05:30;2.65;;;1.60;;
64342;SDS011;50675;53.530;-6.312;2022-08-01T12:07:59;1.90;;;1.50;;
64342;SDS011;50675;53.530;-6.312;2022-08-01T12:10:27;3.35;;;1.80;;
64342;SDS011;50675;53.530;-6.312;2022-08-01T12:13:01;2.78;;;1.80;;
64342;SDS011;50675;53.530;-6.312;2022-08-01T12:15:29;3.42;;;1.58;;
64342;SDS011;50675;53.530;-6.312;2022-08-01T12:17:58;2.83;;;1.65;;
64342;SDS011;50675;53.530;-6.312;2022-08-01T12:20:26;2.20;;;1.45;;
64342;SDS011;50675;53.530;-6.312;2022-08-01T12:22:55;3.10;;;1.45;;
64342;SDS011;50675;53.530;-6.312;2022-08-01T12:25:22;2.47;;;2.10;;
64342;SDS011;50675;53.530;-6.312;2022-08-01T12:27:49;3.80;;;2.38;;
64342;SDS011;50675;53.530;-6.312;2022-08-01T12:30:15;3.03;;;1.52;;
64342;SDS011;50675;53.530;-6.312;2022-08-01T12:32:47;4.32;;;2.10;;
64342;SDS011;50675;53.530;-6.312;2022-08-01T12:35:14;4.43;;;2.20;;
64342;SDS011;50675;53.530;-6.312;2022-08-01T12:37:44;2.67;;;1.80;;
64342;SDS011;50675;53.530;-6.312;2022-08-01T12:40:20;2.42;;;1.88;;
64342;SDS011;50675;53.530;-6.312;2022-08-01T12:42:55;2.63;;;1.90;;
64342;SDS011;50675;53.530;-6.312;2022-08-01T12:45:41;4.85;;;2.50;;
64342;SDS011;50675;53.530;-6.312;2022-08-01T12:48:09;3.38;;;2.08;;
64342;SDS011;50675;53.530;-6.312;2022-08-01T12:50:41;4.28;;;2.00;;
64342;SDS011;50675;53.530;-6.312;2022-08-01T12:53:11;3.38;;;1.60;;
64342;SDS011;50675;53.530;-6.312;2022-08-01T12:55:46;2.33;;;2.03;;
64342;SDS011;50675;53.530;-6.312;2022-08-01T12:58:14;4.03;;;1.70;;
64342;SDS011;50675;53.530;-6.312;2022-08-01T13:00:43;2.75;;;1.60;;
64342;SDS011;50675;53.530;-6.312;2022-08-01T13:03:16;3.38;;;2.03;;
64342;SDS011;50675;53.530;-6.312;2022-08-01T13:05:51;5.45;;;1.70;;
64342;SDS011;50675;53.530;-6.312;2022-08-01T13:08:23;3.60;;;1.63;;
64342;SDS011;50675;53.530;-6.312;2022-08-01T13:11:03;2.97;;;1.83;;
64342;SDS011;50675;53.530;-6.312;2022-08-01T13:13:37;2.30;;;1.70;;
64342;SDS011;50675;53.530;-6.312;2022-08-01T13:16:05;3.20;;;1.60;;
64342;SDS011;50675;53.530;-6.312;2022-08-01T13:18:33;2.45;;;1.60;;
64342;SDS011;50675;53.530;-6.312;2022-08-01T13:21:13;2.38;;;1.35;;
64342;SDS011;50675;53.530;-6.312;2022-08-01T13:29:06;2.22;;;1.48;;
64342;SDS011;50675;53.530;-6.312;2022-08-01T13:31:33;2.63;;;1.55;;
64342;SDS011;50675;53.530;-6.312;2022-08-01T13:34:02;2.97;;;1.70;;
64342;SDS011;50675;53.530;-6.312;2022-08-01T13:36:28;1.27;;;1.08;;
64342;SDS011;50675;53.530;-6.312;2022-08-01T13:38:55;4.18;;;1.20;;
64342;SDS011;50675;53.530;-6.312;2022-08-01T13:41:39;1.77;;;1.10;;
64342;SDS011;50675;53.530;-6.312;2022-08-01T13:44:08;1.13;;;1.02;;
64342;SDS011;50675;53.530;-6.312;2022-08-01T13:46:38;2.20;;;1.00;;
64342;SDS011;50675;53.530;-6.312;2022-08-01T13:49:05;1.10;;;1.00;;
64342;SDS011;50675;53.530;-6.312;2022-08-01T13:51:39;2.40;;;1.20;;
64342;SDS011;50675;53.530;-6.312;2022-08-01T13:54:06;3.13;;;1.10;;
64342;SDS011;50675;53.530;-6.312;2022-08-01T13:56:43;2.10;;;1.38;;
64342;SDS011;50675;53.530;-6.312;2022-08-01T13:59:29;2.40;;;1.20;;
64342;SDS011;50675;53.530;-6.312;2022-08-01T14:02:06;4.88;;;1.33;;
64342;SDS011;50675;53.530;-6.312;2022-08-01T14:04:34;1.48;;;1.00;;
64342;SDS011;50675;53.530;-6.312;2022-08-01T14:07:06;2.30;;;1.23;;
64342;SDS011;50675;53.530;-6.312;2022-08-01T14:09:35;2.53;;;0.85;;
64342;SDS011;50675;53.530;-6.312;2022-08-01T14:12:01;1.60;;;1.10;;
64342;SDS011;50675;53.530;-6.312;2022-08-01T14:14:38;1.33;;;1.10;;
64342;SDS011;50675;53.530;-6.312;2022-08-01T14:17:30;1.90;;;1.00;;
64342;SDS011;50675;53.530;-6.312;2022-08-01T14:19:58;1.45;;;1.05;;
64342;SDS011;50675;53.530;-6.312;2022-08-01T14:22:27;2.03;;;1.13;;
64342;SDS011;50675;53.530;-6.312;2022-08-01T14:25:03;2.60;;;1.30;;
64342;SDS011;50675;53.530;-6.312;2022-08-01T14:27:29;2.58;;;1.20;;
64342;SDS011;50675;53.530;-6.312;2022-08-01T14:30:06;3.28;;;1.15;;
64342;SDS011;50675;53.530;-6.312;2022-08-01T14:32:38;1.35;;;1.00;;
64342;SDS011;50675;53.530;-6.312;2022-08-01T14:35:18;2.25;;;1.17;;
64342;SDS011;50675;53.530;-6.312;2022-08-01T14:37:44;1.83;;;1.10;;
64342;SDS011;50675;53.530;-6.312;2022-08-01T14:40:13;2.22;;;1.20;;
64342;SDS011;50675;53.530;-6.312;2022-08-01T14:42:39;2.15;;;1.00;;
64342;SDS011;50675;53.530;-6.312;2022-08-01T14:45:05;1.65;;;1.15;;
64342;SDS011;50675;53.530;-6.312;2022-08-01T14:47:34;1.80;;;1.10;;
64342;SDS011;50675;53.530;-6.312;2022-08-01T14:50:02;1.95;;;1.00;;
64342;SDS011;50675;53.530;-6.312;2022-08-01T14:52:29;1.70;;;0.80;;
64342;SDS011;50675;53.530;-6.312;2022-08-01T14:54:55;2.15;;;0.70;;
64342;SDS011;50675;53.530;-6.312;2022-08-01T14:57:21;2.45;;;0.90;;
64342;SDS011;50675;53.530;-6.312;2022-08-01T14:59:47;1.17;;;0.90;;
64342;SDS011;50675;53.530;-6.312;2022-08-01T15:02:13;1.13;;;0.90;;
64342;SDS011;50675;53.530;-6.312;2022-08-01T15:04:42;1.23;;;0.85;;
64342;SDS011;50675;53.530;-6.312;2022-08-01T15:07:09;1.25;;;0.90;;
64342;SDS011;50675;53.530;-6.312;2022-08-01T15:09:36;2.35;;;0.88;;
64342;SDS011;50675;53.530;-6.312;2022-08-01T15:12:02;4.43;;;0.80;;
64342;SDS011;50675;53.530;-6.312;2022-08-01T15:14:28;2.55;;;0.90;;
64342;SDS011;50675;53.530;-6.312;2022-08-01T15:17:12;1.80;;;0.80;;
64342;SDS011;50675;53.530;-6.312;2022-08-01T15:19:59;2.13;;;0.82;;
64342;SDS011;50675;53.530;-6.312;2022-08-01T15:22:26;1.92;;;0.85;;
64342;SDS011;50675;53.530;-6.312;2022-08-01T15:24:54;2.40;;;0.93;;
64342;SDS011;50675;53.530;-6.312;2022-08-01T15:27:21;1.65;;;0.70;;
64342;SDS011;50675;53.530;-6.312;2022-08-01T15:29:47;1.85;;;0.60;;
64342;SDS011;50675;53.530;-6.312;2022-08-01T15:32:14;1.23;;;0.57;;
64342;SDS011;50675;53.530;-6.312;2022-08-01T15:34:40;0.80;;;0.40;;
64342;SDS011;50675;53.530;-6.312;2022-08-01T15:37:07;1.75;;;0.65;;
64342;SDS011;50675;53.530;-6.312;2022-08-01T15:39:33;1.02;;;0.50;;
64342;SDS011;50675;53.530;-6.312;2022-08-01T15:42:02;1.88;;;0.85;;
64342;SDS011;50675;53.530;-6.312;2022-08-01T15:44:30;1.65;;;0.80;;
64342;SDS011;50675;53.530;-6.312;2022-08-01T15:46:56;1.30;;;0.55;;
64342;SDS011;50675;53.530;-6.312;2022-08-01T15:49:22;2.63;;;0.50;;
64342;SDS011;50675;53.530;-6.312;2022-08-01T15:51:49;1.70;;;0.40;;
64342;SDS011;50675;53.530;-6.312;2022-08-01T15:54:15;1.00;;;0.50;;
64342;SDS011;50675;53.530;-6.312;2022-08-01T15:56:41;1.48;;;0.43;;
64342;SDS011;50675;53.530;-6.312;2022-08-01T15:59:07;0.80;;;0.40;;
64342;SDS011;50675;53.530;-6.312;2022-08-01T16:01:34;0.40;;;0.40;;
64342;SDS011;50675;53.530;-6.312;2022-08-01T16:04:00;1.20;;;0.50;;
64342;SDS011;50675;53.530;-6.312;2022-08-01T16:06:26;2.47;;;0.68;;
64342;SDS011;50675;53.530;-6.312;2022-08-01T16:08:52;1.55;;;0.47;;
64342;SDS011;50675;53.530;-6.312;2022-08-01T16:11:18;1.63;;;0.50;;
64342;SDS011;50675;53.530;-6.312;2022-08-01T16:13:44;1.33;;;0.60;;
64342;SDS011;50675;53.530;-6.312;2022-08-01T16:16:13;0.75;;;0.60;;
64342;SDS011;50675;53.530;-6.312;2022-08-01T16:18:44;4.45;;;1.00;;
64342;SDS011;50675;53.530;-6.312;2022-08-01T16:24:33;2.05;;;0.95;;
64342;SDS011;50675;53.530;-6.312;2022-08-01T16:27:00;2.65;;;0.57;;
64342;SDS011;50675;53.530;-6.312;2022-08-01T16:29:26;4.50;;;0.90;;
64342;SDS011;50675;53.530;-6.312;2022-08-01T16:31:55;1.63;;;0.60;;
64342;SDS011;50675;53.530;-6.312;2022-08-01T16:34:21;4.60;;;0.80;;
64342;SDS011;50675;53.530;-6.312;2022-08-01T16:36:46;1.92;;;0.60;;
64342;SDS011;50675;53.530;-6.312;2022-08-01T16:39:14;1.00;;;0.45;;
64342;SDS011;50675;53.530;-6.312;2022-08-01T16:41:40;2.00;;;0.80;;
64342;SDS011;50675;53.530;-6.312;2022-08-01T16:44:06;1.38;;;0.57;;
64342;SDS011;50675;53.530;-6.312;2022-08-01T16:46:31;1.52;;;0.77;;
64342;SDS011;50675;53.530;-6.312;2022-08-01T16:48:57;1.63;;;0.73;;
64342;SDS011;50675;53.530;-6.312;2022-08-01T16:51:23;2.00;;;0.70;;
64342;SDS011;50675;53.530;-6.312;2022-08-01T16:53:49;2.50;;;0.90;;
64342;SDS011;50675;53.530;-6.312;2022-08-01T16:56:14;1.73;;;0.73;;
64342;SDS011;50675;53.530;-6.312;2022-08-01T16:58:40;2.38;;;0.80;;
64342;SDS011;50675;53.530;-6.312;2022-08-01T17:01:06;1.17;;;0.80;;
64342;SDS011;50675;53.530;-6.312;2022-08-01T17:03:32;2.75;;;0.80;;
64342;SDS011;50675;53.530;-6.312;2022-08-01T17:05:58;1.45;;;1.05;;
64342;SDS011;50675;53.530;-6.312;2022-08-01T17:08:23;1.02;;;0.90;;
64342;SDS011;50675;53.530;-6.312;2022-08-01T17:10:49;2.95;;;1.00;;
64342;SDS011;50675;53.530;-6.312;2022-08-01T17:13:15;2.47;;;1.13;;
64342;SDS011;50675;53.530;-6.312;2022-08-01T17:15:40;1.55;;;1.05;;
64342;SDS011;50675;53.530;-6.312;2022-08-01T17:18:06;2.03;;;1.10;;